sensor_id;sensor_type;location;lat;lon;timestamp;temperature;humidity
59572;DHT22;59406;45.602;11.904;2023-03-23T00:01:27;21.30;96.50
59572;DHT22;59406;45.602;11.904;2023-03-23T00:03:56;21.40;96.50
59572;DHT22;59406;45.602;11.904;2023-03-23T00:06:25;21.30;96.50
59572;DHT22;59406;45.602;11.904;2023-03-23T00:08:52;21.30;96.40
59572;DHT22;59406;45.602;11.904;2023-03-23T00:11:24;21.30;96.50
59572;DHT22;59406;45.602;11.904;2023-03-23T00:13:52;21.20;96.50
59572;DHT22;59406;45.602;11.904;2023-03-23T00:16:23;21.30;96.60
59572;DHT22;59406;45.602;11.904;2023-03-23T00:19:08;21.30;96.50
59572;DHT22;59406;45.602;11.904;2023-03-23T00:21:37;21.20;96.60
59572;DHT22;59406;45.602;11.904;2023-03-23T00:24:12;21.30;96.80
59572;DHT22;59406;45.602;11.904;2023-03-23T00:26:40;21.20;96.70
59572;DHT22;59406;45.602;11.904;2023-03-23T00:29:18;21.10;96.80
59572;DHT22;59406;45.602;11.904;2023-03-23T00:31:45;21.20;96.90
59572;DHT22;59406;45.602;11.904;2023-03-23T00:34:24;21.30;97.00
59572;DHT22;59406;45.602;11.904;2023-03-23T00:36:52;21.20;96.90
59572;DHT22;59406;45.602;11.904;2023-03-23T00:39:23;21.20;97.10
59572;DHT22;59406;45.602;11.904;2023-03-23T00:41:51;21.20;97.00
59572;DHT22;59406;45.602;11.904;2023-03-23T00:44:17;21.10;97.00
59572;DHT22;59406;45.602;11.904;2023-03-23T00:46:44;21.10;97.20
59572;DHT22;59406;45.602;11.904;2023-03-23T00:49:16;21.20;97.30
59572;DHT22;59406;45.602;11.904;2023-03-23T00:51:42;21.20;97.30
59572;DHT22;59406;45.602;11.904;2023-03-23T00:54:09;21.20;97.40
59572;DHT22;59406;45.602;11.904;2023-03-23T00:56:35;21.20;97.40
59572;DHT22;59406;45.602;11.904;2023-03-23T00:59:01;21.10;97.50
59572;DHT22;59406;45.602;11.904;2023-03-23T01:01:27;21.10;97.60
59572;DHT22;59406;45.602;11.904;2023-03-23T01:03:53;21.10;97.60
59572;DHT22;59406;45.602;11.904;2023-03-23T01:06:27;21.10;97.70
59572;DHT22;59406;45.602;11.904;2023-03-23T01:08:55;21.00;97.80
59572;DHT22;59406;45.602;11.904;2023-03-23T01:11:22;21.10;97.90
59572;DHT22;59406;45.602;11.904;2023-03-23T01:13:48;21.00;97.80
59572;DHT22;59406;45.602;11.904;2023-03-23T01:16:13;21.10;97.80
59572;DHT22;59406;45.602;11.904;2023-03-23T01:18:40;21.10;97.80
59572;DHT22;59406;45.602;11.904;2023-03-23T01:21:12;21.10;98.00
59572;DHT22;59406;45.602;11.904;2023-03-23T01:23:39;21.10;98.20
59572;DHT22;59406;45.602;11.904;2023-03-23T01:26:19;21.00;98.10
59572;DHT22;59406;45.602;11.904;2023-03-23T01:28:45;21.00;98.20
59572;DHT22;59406;45.602;11.904;2023-03-23T01:31:14;20.90;98.20
59572;DHT22;59406;45.602;11.904;2023-03-23T01:33:41;21.00;98.50
59572;DHT22;59406;45.602;11.904;2023-03-23T01:36:17;20.90;98.40
59572;DHT22;59406;45.602;11.904;2023-03-23T01:38:45;20.90;98.40
59572;DHT22;59406;45.602;11.904;2023-03-23T01:41:12;20.90;98.60
59572;DHT22;59406;45.602;11.904;2023-03-23T01:46:25;20.90;99.00
59572;DHT22;59406;45.602;11.904;2023-03-23T01:48:51;21.00;98.70
59572;DHT22;59406;45.602;11.904;2023-03-23T01:51:19;20.90;98.80
59572;DHT22;59406;45.602;11.904;2023-03-23T01:53:57;20.90;98.90
59572;DHT22;59406;45.602;11.904;2023-03-23T01:56:26;20.90;99.20
59572;DHT22;59406;45.602;11.904;2023-03-23T01:58:56;21.00;98.90
59572;DHT22;59406;45.602;11.904;2023-03-23T02:01:22;20.90;99.00
59572;DHT22;59406;45.602;11.904;2023-03-23T02:03:52;20.90;98.90
59572;DHT22;59406;45.602;11.904;2023-03-23T02:06:19;20.80;99.90
59572;DHT22;59406;45.602;11.904;2023-03-23T02:08:49;20.90;99.20
59572;DHT22;59406;45.602;11.904;2023-03-23T02:11:20;20.90;99.90
59572;DHT22;59406;45.602;11.904;2023-03-23T02:13:47;20.80;99.90
59572;DHT22;59406;45.602;11.904;2023-03-23T02:19:02;20.90;99.90
59572;DHT22;59406;45.602;11.904;2023-03-23T02:27:10;20.80;99.90
59572;DHT22;59406;45.602;11.904;2023-03-23T02:32:16;20.80;99.90
59572;DHT22;59406;45.602;11.904;2023-03-23T02:34:59;20.80;99.90
59572;DHT22;59406;45.602;11.904;2023-03-23T02:40:17;20.80;99.90
59572;DHT22;59406;45.602;11.904;2023-03-23T02:42:49;20.80;99.90
59572;DHT22;59406;45.602;11.904;2023-03-23T02:45:17;20.80;99.90
59572;DHT22;59406;45.602;11.904;2023-03-23T02:47:43;20.80;99.90
59572;DHT22;59406;45.602;11.904;2023-03-23T02:50:14;20.70;99.90
59572;DHT22;59406;45.602;11.904;2023-03-23T02:52:42;20.70;99.90
59572;DHT22;59406;45.602;11.904;2023-03-23T02:55:10;20.70;99.90
59572;DHT22;59406;45.602;11.904;2023-03-23T02:57:38;20.70;99.90
59572;DHT22;59406;45.602;11.904;2023-03-23T03:00:06;20.70;99.90
59572;DHT22;59406;45.602;11.904;2023-03-23T03:02:38;20.80;99.90
59572;DHT22;59406;45.602;11.904;2023-03-23T03:10:59;20.70;99.90
59572;DHT22;59406;45.602;11.904;2023-03-23T03:13:42;20.70;99.90
59572;DHT22;59406;45.602;11.904;2023-03-23T03:21:44;20.70;99.90
59572;DHT22;59406;45.602;11.904;2023-03-23T03:24:15;20.70;99.90
59572;DHT22;59406;45.602;11.904;2023-03-23T03:26:45;20.60;99.90
59572;DHT22;59406;45.602;11.904;2023-03-23T03:29:16;20.60;99.90
59572;DHT22;59406;45.602;11.904;2023-03-23T03:31:44;20.70;99.90
59572;DHT22;59406;45.602;11.904;2023-03-23T03:34:12;20.60;99.90
59572;DHT22;59406;45.602;11.904;2023-03-23T03:36:44;20.60;99.90
59572;DHT22;59406;45.602;11.904;2023-03-23T03:39:12;20.60;99.90
59572;DHT22;59406;45.602;11.904;2023-03-23T03:41:41;20.60;99.90
59572;DHT22;59406;45.602;11.904;2023-03-23T03:44:07;20.60;99.90
59572;DHT22;59406;45.602;11.904;2023-03-23T03:46:34;20.60;99.90
59572;DHT22;59406;45.602;11.904;2023-03-23T03:49:01;20.50;99.90
59572;DHT22;59406;45.602;11.904;2023-03-23T03:51:29;20.60;99.90
59572;DHT22;59406;45.602;11.904;2023-03-23T03:53:56;20.60;99.90
59572;DHT22;59406;45.602;11.904;2023-03-23T03:56:23;20.60;99.90
59572;DHT22;59406;45.602;11.904;2023-03-23T03:58:50;20.50;99.90
59572;DHT22;59406;45.602;11.904;2023-03-23T04:01:18;20.60;99.90
59572;DHT22;59406;45.602;11.904;2023-03-23T04:03:44;20.60;99.90
59572;DHT22;59406;45.602;11.904;2023-03-23T04:06:11;20.50;99.90
59572;DHT22;59406;45.602;11.904;2023-03-23T04:08:38;20.50;99.90
59572;DHT22;59406;45.602;11.904;2023-03-23T04:11:08;20.60;99.90
59572;DHT22;59406;45.602;11.904;2023-03-23T04:13:34;20.50;99.90
59572;DHT22;59406;45.602;11.904;2023-03-23T04:16:00;20.50;99.90
59572;DHT22;59406;45.602;11.904;2023-03-23T04:18:27;20.50;99.90
59572;DHT22;59406;45.602;11.904;2023-03-23T04:20:53;20.50;99.90
59572;DHT22;59406;45.602;11.904;2023-03-23T04:23:26;20.50;99.90
59572;DHT22;59406;45.602;11.904;2023-03-23T04:25:53;20.50;99.90
59572;DHT22;59406;45.602;11.904;2023-03-23T04:28:23;20.50;99.90
59572;DHT22;59406;45.602;11.904;2023-03-23T04:30:51;20.50;99.90
59572;DHT22;59406;45.602;11.904;2023-03-23T04:33:22;20.50;99.90
59572;DHT22;59406;45.602;11.904;2023-03-23T04:35:48;20.50;99.90
59572;DHT22;59406;45.602;11.904;2023-03-23T04:38:17;20.50;99.90
59572;DHT22;59406;45.602;11.904;2023-03-23T04:40:48;20.50;99.90
59572;DHT22;59406;45.602;11.904;2023-03-23T04:43:18;20.40;99.90
59572;DHT22;59406;45.602;11.904;2023-03-23T04:45:51;20.50;99.90
59572;DHT22;59406;45.602;11.904;2023-03-23T04:48:17;20.40;99.90
59572;DHT22;59406;45.602;11.904;2023-03-23T04:50:45;20.40;99.90
59572;DHT22;59406;45.602;11.904;2023-03-23T04:53:11;20.40;99.90
59572;DHT22;59406;45.602;11.904;2023-03-23T04:55:36;20.40;99.90
59572;DHT22;59406;45.602;11.904;2023-03-23T04:58:06;20.40;99.90
59572;DHT22;59406;45.602;11.904;2023-03-23T05:00:34;20.40;99.90
59572;DHT22;59406;45.602;11.904;2023-03-23T05:03:00;20.40;99.90
59572;DHT22;59406;45.602;11.904;2023-03-23T05:05:27;20.40;99.90
59572;DHT22;59406;45.602;11.904;2023-03-23T05:07:55;20.40;99.90
59572;DHT22;59406;45.602;11.904;2023-03-23T05:10:21;20.30;99.90
59572;DHT22;59406;45.602;11.904;2023-03-23T05:12:47;20.40;99.90
59572;DHT22;59406;45.602;11.904;2023-03-23T05:15:14;20.40;99.90
59572;DHT22;59406;45.602;11.904;2023-03-23T05:17:42;20.30;99.90
59572;DHT22;59406;45.602;11.904;2023-03-23T05:20:16;20.40;99.90
59572;DHT22;59406;45.602;11.904;2023-03-23T05:22:46;20.30;99.90
59572;DHT22;59406;45.602;11.904;2023-03-23T05:25:16;20.40;99.90
59572;DHT22;59406;45.602;11.904;2023-03-23T05:27:46;20.30;99.90
59572;DHT22;59406;45.602;11.904;2023-03-23T05:30:19;20.40;99.90
59572;DHT22;59406;45.602;11.904;2023-03-23T05:32:45;20.40;99.90
59572;DHT22;59406;45.602;11.904;2023-03-23T05:35:11;20.30;99.90
59572;DHT22;59406;45.602;11.904;2023-03-23T05:37:38;20.40;99.90
59572;DHT22;59406;45.602;11.904;2023-03-23T05:40:05;20.40;99.90
59572;DHT22;59406;45.602;11.904;2023-03-23T05:42:35;20.30;99.90
59572;DHT22;59406;45.602;11.904;2023-03-23T05:45:03;20.30;99.90
59572;DHT22;59406;45.602;11.904;2023-03-23T05:47:29;20.30;99.90
59572;DHT22;59406;45.602;11.904;2023-03-23T05:49:56;20.30;99.90
59572;DHT22;59406;45.602;11.904;2023-03-23T05:52:22;20.40;99.90
59572;DHT22;59406;45.602;11.904;2023-03-23T05:54:51;20.30;99.90
59572;DHT22;59406;45.602;11.904;2023-03-23T05:57:18;20.30;99.90
59572;DHT22;59406;45.602;11.904;2023-03-23T05:59:44;20.30;99.90
59572;DHT22;59406;45.602;11.904;2023-03-23T06:02:11;20.30;99.90
59572;DHT22;59406;45.602;11.904;2023-03-23T06:04:37;20.30;99.90
59572;DHT22;59406;45.602;11.904;2023-03-23T06:07:04;20.40;99.90
59572;DHT22;59406;45.602;11.904;2023-03-23T06:09:30;20.20;99.90
59572;DHT22;59406;45.602;11.904;2023-03-23T06:11:56;20.30;99.90
59572;DHT22;59406;45.602;11.904;2023-03-23T06:14:22;20.30;99.90
59572;DHT22;59406;45.602;11.904;2023-03-23T06:16:48;20.40;99.90
59572;DHT22;59406;45.602;11.904;2023-03-23T06:19:15;20.30;99.90
59572;DHT22;59406;45.602;11.904;2023-03-23T06:21:42;20.40;99.90
59572;DHT22;59406;45.602;11.904;2023-03-23T06:24:08;20.30;99.90
59572;DHT22;59406;45.602;11.904;2023-03-23T06:26:37;20.40;99.90
59572;DHT22;59406;45.602;11.904;2023-03-23T06:29:05;20.40;99.90
59572;DHT22;59406;45.602;11.904;2023-03-23T06:31:42;20.40;99.90
59572;DHT22;59406;45.602;11.904;2023-03-23T06:34:09;20.30;99.90
59572;DHT22;59406;45.602;11.904;2023-03-23T06:36:36;20.40;99.90
59572;DHT22;59406;45.602;11.904;2023-03-23T06:39:02;20.40;99.90
59572;DHT22;59406;45.602;11.904;2023-03-23T06:41:32;20.50;99.90
59572;DHT22;59406;45.602;11.904;2023-03-23T06:43:59;20.50;99.90
59572;DHT22;59406;45.602;11.904;2023-03-23T06:46:26;20.50;99.90
59572;DHT22;59406;45.602;11.904;2023-03-23T06:48:52;20.50;99.90
59572;DHT22;59406;45.602;11.904;2023-03-23T06:51:18;20.60;99.90
59572;DHT22;59406;45.602;11.904;2023-03-23T06:53:44;20.60;99.90
59572;DHT22;59406;45.602;11.904;2023-03-23T06:56:12;20.50;99.90
59572;DHT22;59406;45.602;11.904;2023-03-23T06:58:39;20.50;99.90
59572;DHT22;59406;45.602;11.904;2023-03-23T07:01:05;20.60;99.90
59572;DHT22;59406;45.602;11.904;2023-03-23T07:03:32;20.60;99.90
59572;DHT22;59406;45.602;11.904;2023-03-23T07:05:58;20.60;99.90
59572;DHT22;59406;45.602;11.904;2023-03-23T07:08:25;20.70;99.90
59572;DHT22;59406;45.602;11.904;2023-03-23T07:10:55;20.60;99.90
59572;DHT22;59406;45.602;11.904;2023-03-23T07:13:22;20.70;99.90
59572;DHT22;59406;45.602;11.904;2023-03-23T07:15:48;20.70;99.90
59572;DHT22;59406;45.602;11.904;2023-03-23T07:18:15;20.90;99.90
59572;DHT22;59406;45.602;11.904;2023-03-23T07:20:41;21.10;98.40
59572;DHT22;59406;45.602;11.904;2023-03-23T07:23:07;21.50;96.20
59572;DHT22;59406;45.602;11.904;2023-03-23T07:25:35;21.70;94.20
59572;DHT22;59406;45.602;11.904;2023-03-23T07:28:03;21.90;92.40
59572;DHT22;59406;45.602;11.904;2023-03-23T07:30:29;21.90;92.00
59572;DHT22;59406;45.602;11.904;2023-03-23T07:32:56;21.80;92.80
59572;DHT22;59406;45.602;11.904;2023-03-23T07:35:23;21.60;93.90
59572;DHT22;59406;45.602;11.904;2023-03-23T07:37:49;21.50;95.00
59572;DHT22;59406;45.602;11.904;2023-03-23T07:40:15;21.50;96.20
59572;DHT22;59406;45.602;11.904;2023-03-23T07:42:42;21.30;97.10
59572;DHT22;59406;45.602;11.904;2023-03-23T07:45:13;21.40;97.60
59572;DHT22;59406;45.602;11.904;2023-03-23T07:47:42;21.70;94.40
59572;DHT22;59406;45.602;11.904;2023-03-23T07:50:08;21.90;92.40
59572;DHT22;59406;45.602;11.904;2023-03-23T07:52:35;21.80;92.40
59572;DHT22;59406;45.602;11.904;2023-03-23T07:55:02;21.80;93.20
59572;DHT22;59406;45.602;11.904;2023-03-23T07:57:30;21.60;94.30
59572;DHT22;59406;45.602;11.904;2023-03-23T07:59:56;21.60;95.20
59572;DHT22;59406;45.602;11.904;2023-03-23T08:02:23;21.50;96.10
59572;DHT22;59406;45.602;11.904;2023-03-23T08:04:50;21.40;96.50
59572;DHT22;59406;45.602;11.904;2023-03-23T08:07:17;21.30;97.60
59572;DHT22;59406;45.602;11.904;2023-03-23T08:09:45;21.40;98.20
59572;DHT22;59406;45.602;11.904;2023-03-23T08:12:12;21.20;98.80
59572;DHT22;59406;45.602;11.904;2023-03-23T08:14:39;21.20;99.00
59572;DHT22;59406;45.602;11.904;2023-03-23T08:17:07;21.10;99.20
59572;DHT22;59406;45.602;11.904;2023-03-23T08:19:35;21.30;99.30
59572;DHT22;59406;45.602;11.904;2023-03-23T08:22:04;21.30;99.00
59572;DHT22;59406;45.602;11.904;2023-03-23T08:24:31;21.10;99.30
59572;DHT22;59406;45.602;11.904;2023-03-23T08:26:59;21.30;99.20
59572;DHT22;59406;45.602;11.904;2023-03-23T08:29:25;21.30;97.10
59572;DHT22;59406;45.602;11.904;2023-03-23T08:31:52;21.20;96.20
59572;DHT22;59406;45.602;11.904;2023-03-23T08:34:18;21.30;94.80
59572;DHT22;59406;45.602;11.904;2023-03-23T08:36:43;21.20;96.20
59572;DHT22;59406;45.602;11.904;2023-03-23T08:39:13;21.30;96.80
59572;DHT22;59406;45.602;11.904;2023-03-23T08:41:43;21.20;97.60
59572;DHT22;59406;45.602;11.904;2023-03-23T08:44:11;21.20;96.90
59572;DHT22;59406;45.602;11.904;2023-03-23T08:46:37;21.10;97.70
59572;DHT22;59406;45.602;11.904;2023-03-23T08:49:03;21.10;97.50
59572;DHT22;59406;45.602;11.904;2023-03-23T08:51:29;21.20;98.10
59572;DHT22;59406;45.602;11.904;2023-03-23T08:53:55;21.10;97.90
59572;DHT22;59406;45.602;11.904;2023-03-23T08:56:21;21.10;98.00
59572;DHT22;59406;45.602;11.904;2023-03-23T08:58:48;21.20;95.80
59572;DHT22;59406;45.602;11.904;2023-03-23T09:01:14;21.10;95.60
59572;DHT22;59406;45.602;11.904;2023-03-23T09:03:40;21.20;95.10
59572;DHT22;59406;45.602;11.904;2023-03-23T09:06:08;21.30;94.80
59572;DHT22;59406;45.602;11.904;2023-03-23T09:08:35;21.20;94.00
59572;DHT22;59406;45.602;11.904;2023-03-23T09:11:02;21.30;93.70
59572;DHT22;59406;45.602;11.904;2023-03-23T09:13:29;21.30;93.10
59572;DHT22;59406;45.602;11.904;2023-03-23T09:15:55;21.30;91.70
59572;DHT22;59406;45.602;11.904;2023-03-23T09:18:21;21.40;91.00
59572;DHT22;59406;45.602;11.904;2023-03-23T09:20:49;21.40;92.50
59572;DHT22;59406;45.602;11.904;2023-03-23T09:23:16;21.40;92.50
59572;DHT22;59406;45.602;11.904;2023-03-23T09:25:43;21.40;91.60
59572;DHT22;59406;45.602;11.904;2023-03-23T09:28:09;21.40;92.30
59572;DHT22;59406;45.602;11.904;2023-03-23T09:30:36;21.40;93.00
59572;DHT22;59406;45.602;11.904;2023-03-23T09:33:04;21.40;92.70
59572;DHT22;59406;45.602;11.904;2023-03-23T09:35:32;21.30;92.30
59572;DHT22;59406;45.602;11.904;2023-03-23T09:38:00;21.40;91.90
59572;DHT22;59406;45.602;11.904;2023-03-23T09:48:54;21.40;88.90
59572;DHT22;59406;45.602;11.904;2023-03-23T09:51:49;21.50;91.80
59572;DHT22;59406;45.602;11.904;2023-03-23T09:54:41;21.50;90.00
59572;DHT22;59406;45.602;11.904;2023-03-23T09:59:49;21.50;88.70
59572;DHT22;59406;45.602;11.904;2023-03-23T10:02:30;21.60;89.90
59572;DHT22;59406;45.602;11.904;2023-03-23T10:07:54;21.60;92.20
59572;DHT22;59406;45.602;11.904;2023-03-23T10:10:24;21.50;90.10
59572;DHT22;59406;45.602;11.904;2023-03-23T10:12:58;21.50;90.80
59572;DHT22;59406;45.602;11.904;2023-03-23T10:15:37;21.60;91.50
59572;DHT22;59406;45.602;11.904;2023-03-23T10:18:13;21.60;91.00
59572;DHT22;59406;45.602;11.904;2023-03-23T10:21:01;21.60;89.50
59572;DHT22;59406;45.602;11.904;2023-03-23T10:28:52;21.50;86.50
59572;DHT22;59406;45.602;11.904;2023-03-23T10:31:35;21.60;90.00
59572;DHT22;59406;45.602;11.904;2023-03-23T10:34:12;21.60;89.40
59572;DHT22;59406;45.602;11.904;2023-03-23T10:39:31;21.60;87.90
59572;DHT22;59406;45.602;11.904;2023-03-23T10:42:00;21.60;90.30
59572;DHT22;59406;45.602;11.904;2023-03-23T10:44:33;21.60;86.50
59572;DHT22;59406;45.602;11.904;2023-03-23T10:47:02;21.70;87.20
59572;DHT22;59406;45.602;11.904;2023-03-23T10:52:35;21.60;90.00
59572;DHT22;59406;45.602;11.904;2023-03-23T10:57:32;21.70;91.60
59572;DHT22;59406;45.602;11.904;2023-03-23T11:00:02;21.70;88.90
59572;DHT22;59406;45.602;11.904;2023-03-23T11:02:37;21.70;86.80
59572;DHT22;59406;45.602;11.904;2023-03-23T11:05:13;21.70;88.90
59572;DHT22;59406;45.602;11.904;2023-03-23T11:07:41;21.70;86.10
59572;DHT22;59406;45.602;11.904;2023-03-23T11:10:46;21.70;86.70
59572;DHT22;59406;45.602;11.904;2023-03-23T11:13:13;21.70;87.00
59572;DHT22;59406;45.602;11.904;2023-03-23T11:15:41;21.70;89.40
59572;DHT22;59406;45.602;11.904;2023-03-23T11:18:18;21.70;86.70
59572;DHT22;59406;45.602;11.904;2023-03-23T11:20:47;21.70;85.10
59572;DHT22;59406;45.602;11.904;2023-03-23T11:23:42;21.70;87.80
59572;DHT22;59406;45.602;11.904;2023-03-23T11:26:15;21.70;84.60
59572;DHT22;59406;45.602;11.904;2023-03-23T11:31:49;21.70;90.00
59572;DHT22;59406;45.602;11.904;2023-03-23T11:34:36;21.70;85.30
59572;DHT22;59406;45.602;11.904;2023-03-23T11:37:24;21.60;85.60
59572;DHT22;59406;45.602;11.904;2023-03-23T11:39:57;21.60;87.10
59572;DHT22;59406;45.602;11.904;2023-03-23T11:42:47;21.60;88.00
59572;DHT22;59406;45.602;11.904;2023-03-23T11:45:30;21.60;88.40
59572;DHT22;59406;45.602;11.904;2023-03-23T11:50:50;21.70;86.30
59572;DHT22;59406;45.602;11.904;2023-03-23T11:53:39;21.70;86.70
59572;DHT22;59406;45.602;11.904;2023-03-23T11:56:23;21.60;86.20
59572;DHT22;59406;45.602;11.904;2023-03-23T11:58:53;21.60;87.30
59572;DHT22;59406;45.602;11.904;2023-03-23T12:01:47;21.60;87.90
59572;DHT22;59406;45.602;11.904;2023-03-23T12:04:39;21.70;87.10
59572;DHT22;59406;45.602;11.904;2023-03-23T12:10:24;21.70;82.90
59572;DHT22;59406;45.602;11.904;2023-03-23T12:16:10;21.70;89.20
59572;DHT22;59406;45.602;11.904;2023-03-23T12:27:35;21.70;88.50
59572;DHT22;59406;45.602;11.904;2023-03-23T12:44:21;21.70;90.50
59572;DHT22;59406;45.602;11.904;2023-03-23T12:49:59;21.60;87.10
59572;DHT22;59406;45.602;11.904;2023-03-23T12:52:44;21.70;86.80
59572;DHT22;59406;45.602;11.904;2023-03-23T12:55:39;21.60;85.80
59572;DHT22;59406;45.602;11.904;2023-03-23T12:58:17;21.70;86.50
59572;DHT22;59406;45.602;11.904;2023-03-23T13:01:01;21.60;88.90
59572;DHT22;59406;45.602;11.904;2023-03-23T13:11:38;21.70;88.30
59572;DHT22;59406;45.602;11.904;2023-03-23T13:16:50;21.70;87.40
59572;DHT22;59406;45.602;11.904;2023-03-23T13:22:20;21.60;89.80
59572;DHT22;59406;45.602;11.904;2023-03-23T13:24:54;21.70;90.80
59572;DHT22;59406;45.602;11.904;2023-03-23T13:27:30;21.70;88.40
59572;DHT22;59406;45.602;11.904;2023-03-23T13:29:57;21.70;87.00
59572;DHT22;59406;45.602;11.904;2023-03-23T13:35:02;21.60;86.60
59572;DHT22;59406;45.602;11.904;2023-03-23T13:37:29;21.60;86.90
59572;DHT22;59406;45.602;11.904;2023-03-23T13:40:11;21.60;87.60
59572;DHT22;59406;45.602;11.904;2023-03-23T13:42:53;21.60;88.20
59572;DHT22;59406;45.602;11.904;2023-03-23T13:45:51;21.70;87.20
59572;DHT22;59406;45.602;11.904;2023-03-23T13:51:00;21.70;90.50
59572;DHT22;59406;45.602;11.904;2023-03-23T13:53:30;21.60;92.90
59572;DHT22;59406;45.602;11.904;2023-03-23T13:58:47;21.70;93.30
59572;DHT22;59406;45.602;11.904;2023-03-23T14:01:19;21.70;93.80
59572;DHT22;59406;45.602;11.904;2023-03-23T14:04:00;21.70;93.60
59572;DHT22;59406;45.602;11.904;2023-03-23T14:06:27;21.70;93.20
59572;DHT22;59406;45.602;11.904;2023-03-23T14:09:10;21.70;93.00
59572;DHT22;59406;45.602;11.904;2023-03-23T14:11:47;21.70;90.00
59572;DHT22;59406;45.602;11.904;2023-03-23T14:14:23;21.60;88.60
59572;DHT22;59406;45.602;11.904;2023-03-23T14:16:51;21.70;88.00
59572;DHT22;59406;45.602;11.904;2023-03-23T14:21:58;21.80;88.90
59572;DHT22;59406;45.602;11.904;2023-03-23T14:24:30;21.60;87.00
59572;DHT22;59406;45.602;11.904;2023-03-23T14:29:39;21.70;89.80
59572;DHT22;59406;45.602;11.904;2023-03-23T14:32:11;21.70;89.80
59572;DHT22;59406;45.602;11.904;2023-03-23T14:34:39;21.70;89.60
59572;DHT22;59406;45.602;11.904;2023-03-23T14:37:11;21.70;90.50
59572;DHT22;59406;45.602;11.904;2023-03-23T14:39:38;21.80;89.40
59572;DHT22;59406;45.602;11.904;2023-03-23T14:42:06;21.70;89.50
59572;DHT22;59406;45.602;11.904;2023-03-23T14:44:40;21.70;91.30
59572;DHT22;59406;45.602;11.904;2023-03-23T14:47:23;21.70;91.00
59572;DHT22;59406;45.602;11.904;2023-03-23T14:49:56;21.80;92.70
59572;DHT22;59406;45.602;11.904;2023-03-23T14:52:26;21.80;93.00
59572;DHT22;59406;45.602;11.904;2023-03-23T14:54:53;21.70;93.00
59572;DHT22;59406;45.602;11.904;2023-03-23T14:59:52;21.80;91.60
59572;DHT22;59406;45.602;11.904;2023-03-23T15:02:29;21.70;91.00
59572;DHT22;59406;45.602;11.904;2023-03-23T15:05:00;21.70;90.10
59572;DHT22;59406;45.602;11.904;2023-03-23T15:07:32;21.70;91.10
59572;DHT22;59406;45.602;11.904;2023-03-23T15:09:59;21.80;89.10
59572;DHT22;59406;45.602;11.904;2023-03-23T15:12:28;21.80;89.90
59572;DHT22;59406;45.602;11.904;2023-03-23T15:15:04;21.80;91.10
59572;DHT22;59406;45.602;11.904;2023-03-23T15:17:34;21.80;91.10
59572;DHT22;59406;45.602;11.904;2023-03-23T15:20:09;21.80;92.20
59572;DHT22;59406;45.602;11.904;2023-03-23T15:22:35;21.80;93.20
59572;DHT22;59406;45.602;11.904;2023-03-23T15:25:17;21.90;92.20
59572;DHT22;59406;45.602;11.904;2023-03-23T15:27:58;21.80;90.60
59572;DHT22;59406;45.602;11.904;2023-03-23T15:33:02;21.80;90.50
59572;DHT22;59406;45.602;11.904;2023-03-23T15:35:33;21.90;91.90
59572;DHT22;59406;45.602;11.904;2023-03-23T15:38:06;21.80;91.10
59572;DHT22;59406;45.602;11.904;2023-03-23T15:40:40;21.80;91.60
59572;DHT22;59406;45.602;11.904;2023-03-23T15:43:22;21.70;91.90
59572;DHT22;59406;45.602;11.904;2023-03-23T15:46:00;21.80;92.90
59572;DHT22;59406;45.602;11.904;2023-03-23T15:48:30;21.80;92.60
59572;DHT22;59406;45.602;11.904;2023-03-23T15:50:57;21.80;91.60
59572;DHT22;59406;45.602;11.904;2023-03-23T15:53:27;21.90;91.90
59572;DHT22;59406;45.602;11.904;2023-03-23T15:55:54;21.80;92.50
59572;DHT22;59406;45.602;11.904;2023-03-23T15:58:20;21.80;92.90
59572;DHT22;59406;45.602;11.904;2023-03-23T16:00:48;21.80;93.00
59572;DHT22;59406;45.602;11.904;2023-03-23T16:03:29;21.80;93.30
59572;DHT22;59406;45.602;11.904;2023-03-23T16:05:58;21.90;93.40
59572;DHT22;59406;45.602;11.904;2023-03-23T16:08:28;21.80;93.80
59572;DHT22;59406;45.602;11.904;2023-03-23T16:10:54;21.90;94.10
59572;DHT22;59406;45.602;11.904;2023-03-23T16:13:20;21.90;93.90
59572;DHT22;59406;45.602;11.904;2023-03-23T16:15:47;21.80;93.20
59572;DHT22;59406;45.602;11.904;2023-03-23T16:18:19;21.80;93.30
59572;DHT22;59406;45.602;11.904;2023-03-23T16:20:48;21.80;93.60
59572;DHT22;59406;45.602;11.904;2023-03-23T16:23:16;21.80;93.10
59572;DHT22;59406;45.602;11.904;2023-03-23T16:25:42;21.90;93.10
59572;DHT22;59406;45.602;11.904;2023-03-23T16:28:11;21.90;93.10
59572;DHT22;59406;45.602;11.904;2023-03-23T16:30:38;21.80;92.30
59572;DHT22;59406;45.602;11.904;2023-03-23T16:33:04;21.80;92.00
59572;DHT22;59406;45.602;11.904;2023-03-23T16:35:30;21.80;92.20
59572;DHT22;59406;45.602;11.904;2023-03-23T16:37:56;21.80;91.60
59572;DHT22;59406;45.602;11.904;2023-03-23T16:40:23;21.80;91.50
59572;DHT22;59406;45.602;11.904;2023-03-23T16:42:50;21.80;91.90
59572;DHT22;59406;45.602;11.904;2023-03-23T16:45:16;21.80;91.80
59572;DHT22;59406;45.602;11.904;2023-03-23T16:47:43;21.80;92.10
59572;DHT22;59406;45.602;11.904;2023-03-23T16:50:12;21.70;93.10
59572;DHT22;59406;45.602;11.904;2023-03-23T16:52:40;21.80;94.00
59572;DHT22;59406;45.602;11.904;2023-03-23T16:55:08;21.70;92.50
59572;DHT22;59406;45.602;11.904;2023-03-23T16:57:35;21.80;92.40
59572;DHT22;59406;45.602;11.904;2023-03-23T17:00:07;21.80;92.50
59572;DHT22;59406;45.602;11.904;2023-03-23T17:02:35;21.80;92.30
59572;DHT22;59406;45.602;11.904;2023-03-23T17:05:01;21.70;92.40
59572;DHT22;59406;45.602;11.904;2023-03-23T17:07:27;21.80;92.30
59572;DHT22;59406;45.602;11.904;2023-03-23T17:09:53;21.70;92.10
59572;DHT22;59406;45.602;11.904;2023-03-23T17:12:20;21.80;92.20
59572;DHT22;59406;45.602;11.904;2023-03-23T17:14:46;21.80;92.70
59572;DHT22;59406;45.602;11.904;2023-03-23T17:17:12;21.80;92.60
59572;DHT22;59406;45.602;11.904;2023-03-23T17:19:40;21.70;92.60
59572;DHT22;59406;45.602;11.904;2023-03-23T17:22:07;21.70;92.70
59572;DHT22;59406;45.602;11.904;2023-03-23T17:24:33;21.70;92.60
59572;DHT22;59406;45.602;11.904;2023-03-23T17:26:59;21.70;92.40
59572;DHT22;59406;45.602;11.904;2023-03-23T17:29:24;21.70;92.50
59572;DHT22;59406;45.602;11.904;2023-03-23T17:31:51;21.70;92.40
59572;DHT22;59406;45.602;11.904;2023-03-23T17:34:17;21.70;92.30
59572;DHT22;59406;45.602;11.904;2023-03-23T17:36:43;21.80;91.70
59572;DHT22;59406;45.602;11.904;2023-03-23T17:39:09;21.70;91.40